Time;durP1;ratioP1;P1;durP2;ratioP2;P2;SDS_P1;SDS_P2;PMS_P1;PMS_P2;Temp;Humidity;BMP_temperature;BMP_pressure;BME280_temperature;BME280_humidity;BME280_pressure;Samples;Min_cycle;Max_cycle;Signal;HPM_P1;HPM_P2
2024/01/13 00:02:13;;;;;;;2.05;0.60;;;16.70;57.50;;;;;;4847930;29;20185;-85
2024/01/13 00:04:41;;;;;;;1.67;0.50;;;16.80;57.30;;;;;;4859563;29;20217;-84
2024/01/13 00:07:08;;;;;;;0.75;0.50;;;16.80;58.30;;;;;;4827538;29;20193;-85
2024/01/13 00:09:34;;;;;;;2.13;0.80;;;16.70;57.30;;;;;;4837227;29;20197;-85
2024/01/13 00:12:06;;;;;;;1.13;0.60;;;16.80;57.50;;;;;;4850381;29;20329;-84
2024/01/13 00:14:34;;;;;;;0.82;0.50;;;16.80;57.30;;;;;;4828036;29;20207;-84
2024/01/13 00:17:03;;;;;;;0.75;0.57;;;16.70;57.60;;;;;;4832454;29;20177;-84
2024/01/13 00:19:29;;;;;;;2.28;0.50;;;16.70;57.60;;;;;;4822866;29;20684;-84
2024/01/13 00:21:56;;;;;;;0.90;0.60;;;16.70;57.60;;;;;;4822496;29;20260;-85
2024/01/13 00:24:22;;;;;;;0.47;0.40;;;16.70;57.60;;;;;;4814581;29;20207;-85
2024/01/13 00:26:53;;;;;;;0.90;0.60;;;16.70;57.60;;;;;;4842952;29;20169;-84
2024/01/13 00:29:21;;;;;;;1.08;0.60;;;16.60;57.70;;;;;;4828890;29;20197;-84
2024/01/13 00:31:48;;;;;;;0.90;0.50;;;16.60;57.70;;;;;;4840980;29;20173;-84
2024/01/13 00:34:14;;;;;;;1.83;0.57;;;16.70;57.50;;;;;;4823168;29;20181;-85
2024/01/13 00:36:41;;;;;;;0.82;0.60;;;16.70;57.60;;;;;;4869507;29;20198;-84
2024/01/13 00:39:07;;;;;;;0.90;0.50;;;16.70;57.60;;;;;;4836842;29;20302;-85
2024/01/13 00:41:33;;;;;;;1.20;0.60;;;16.70;57.60;;;;;;4860443;29;20207;-84
2024/01/13 00:44:00;;;;;;;0.70;0.50;;;16.70;57.60;;;;;;4840302;29;20182;-85
2024/01/13 00:46:29;;;;;;;0.55;0.50;;;16.70;57.60;;;;;;4854129;29;20185;-84
2024/01/13 00:48:56;;;;;;;1.85;0.60;;;16.70;57.80;;;;;;4848650;29;20240;-84
2024/01/13 00:51:22;;;;;;;1.58;0.60;;;16.60;57.70;;;;;;4841429;29;20172;-84
2024/01/13 00:53:51;;;;;;;1.50;0.60;;;16.70;57.60;;;;;;4857407;29;20221;-84
2024/01/13 00:56:20;;;;;;;1.88;0.55;;;16.70;57.60;;;;;;4867425;24;20240;-84
2024/01/13 00:58:46;;;;;;;1.50;0.70;;;16.70;57.90;;;;;;4837315;29;20177;-84
2024/01/13 01:01:13;;;;;;;1.90;0.70;;;16.70;57.60;;;;;;4820434;29;20226;-84
2024/01/13 01:03:58;;;;;;;1.25;0.60;;;16.60;57.90;;;;;;4851387;29;20170;-85
2024/01/13 01:06:25;;;;;;;1.73;0.63;;;16.50;57.70;;;;;;4854061;29;20275;-86
2024/01/13 01:08:51;;;;;;;1.13;0.50;;;16.60;57.60;;;;;;4834937;29;20182;-85
2024/01/13 01:11:18;;;;;;;1.48;0.68;;;16.60;57.80;;;;;;4834015;29;20172;-84
2024/01/13 01:13:45;;;;;;;1.55;0.47;;;16.60;57.90;;;;;;4872269;29;20153;-84
2024/01/13 01:16:10;;;;;;;0.80;0.50;;;16.50;57.80;;;;;;4848380;29;20173;-84
2024/01/13 01:18:37;;;;;;;1.17;0.65;;;16.50;57.70;;;;;;4834543;29;20174;-84
2024/01/13 01:21:03;;;;;;;1.25;0.63;;;16.60;57.70;;;;;;4819049;29;20173;-85
2024/01/13 01:23:30;;;;;;;1.08;0.60;;;16.60;57.70;;;;;;4834474;29;20170;-83
2024/01/13 01:25:56;;;;;;;1.85;0.50;;;16.60;57.90;;;;;;4841563;29;20172;-84
2024/01/13 01:28:25;;;;;;;2.22;0.63;;;16.50;57.90;;;;;;4866575;29;20195;-83
2024/01/13 01:30:51;;;;;;;2.15;0.70;;;16.60;57.80;;;;;;4845803;29;20189;-84
2024/01/13 01:33:19;;;;;;;0.95;0.40;;;16.60;58.00;;;;;;4866130;29;20161;-85
2024/01/13 01:35:45;;;;;;;0.75;0.65;;;16.60;57.90;;;;;;4846489;29;20161;-84
2024/01/13 01:38:13;;;;;;;1.60;0.50;;;16.60;57.80;;;;;;4815883;29;20232;-84
2024/01/13 01:40:38;;;;;;;0.63;0.57;;;16.50;57.90;;;;;;4816518;29;20231;-84
2024/01/13 01:45:31;;;;;;;0.52;0.45;;;16.60;57.80;;;;;;4906052;23;20248;-84
2024/01/13 01:47:57;;;;;;;1.60;0.47;;;16.60;57.80;;;;;;4882415;29;20390;-84
2024/01/13 01:50:22;;;;;;;1.05;0.63;;;16.60;57.80;;;;;;4866569;29;20199;-84
2024/01/13 01:52:48;;;;;;;0.95;0.60;;;16.60;57.90;;;;;;4868921;29;20180;-84
2024/01/13 01:55:14;;;;;;;0.40;0.40;;;16.60;57.70;;;;;;4885032;29;20179;-84
2024/01/13 01:57:40;;;;;;;1.75;0.57;;;16.60;58.00;;;;;;4876933;29;20175;-84
2024/01/13 02:00:08;;;;;;;1.23;0.70;;;16.60;57.70;;;;;;4892923;29;20694;-85
2024/01/13 02:02:34;;;;;;;2.20;0.60;;;16.50;57.80;;;;;;4869527;29;20624;-84
2024/01/13 02:05:02;;;;;;;1.17;0.65;;;16.50;58.00;;;;;;4876421;29;20251;-84
2024/01/13 02:07:28;;;;;;;0.70;0.40;;;16.50;58.10;;;;;;4850523;29;20191;-84
2024/01/13 02:09:54;;;;;;;0.50;0.50;;;16.50;58.30;;;;;;4832315;29;20192;-84
2024/01/13 02:12:19;;;;;;;2.25;0.85;;;16.50;58.20;;;;;;4853600;29;20171;-84
2024/01/13 02:14:45;;;;;;;6.15;1.15;;;16.50;58.00;;;;;;4868539;29;20187;-84
2024/01/13 02:17:12;;;;;;;1.10;0.50;;;16.50;58.00;;;;;;4867971;29;20176;-83
2024/01/13 02:19:38;;;;;;;0.88;0.70;;;16.60;58.00;;;;;;4867651;29;20206;-85
2024/01/13 02:22:07;;;;;;;0.75;0.65;;;16.50;57.80;;;;;;4869082;29;20542;-85
2024/01/13 02:24:33;;;;;;;2.00;0.60;;;16.50;58.00;;;;;;4882885;29;20187;-84
2024/01/13 02:26:59;;;;;;;0.77;0.52;;;16.50;58.20;;;;;;4849924;29;20173;-85
2024/01/13 02:29:27;;;;;;;3.85;0.60;;;16.50;57.80;;;;;;4853631;29;20612;-84
2024/01/13 02:31:53;;;;;;;1.40;0.40;;;16.50;57.90;;;;;;4875936;29;20188;-84
2024/01/13 02:34:19;;;;;;;1.58;0.50;;;16.50;57.80;;;;;;4893241;29;20179;-84
2024/01/13 02:36:46;;;;;;;0.63;0.63;;;16.50;57.90;;;;;;4901404;29;20160;-84
2024/01/13 02:39:12;;;;;;;1.58;0.60;;;16.50;58.00;;;;;;4868828;29;20251;-84
2024/01/13 02:41:40;;;;;;;2.30;0.63;;;16.50;58.00;;;;;;4884542;29;20220;-84
2024/01/13 02:44:05;;;;;;;2.55;0.50;;;16.40;58.10;;;;;;4865153;29;20246;-84
2024/01/13 02:46:31;;;;;;;1.58;0.60;;;16.50;57.90;;;;;;4874044;29;20188;-84
2024/01/13 02:48:57;;;;;;;0.95;0.70;;;16.50;57.90;;;;;;4853198;29;20192;-84
2024/01/13 02:51:25;;;;;;;2.40;0.85;;;16.40;58.10;;;;;;4837265;29;20195;-84
2024/01/13 02:53:51;;;;;;;0.75;0.65;;;16.30;58.10;;;;;;4874841;29;20179;-85
2024/01/13 02:56:16;;;;;;;1.45;0.60;;;16.40;58.00;;;;;;4883465;29;20180;-84
2024/01/13 02:58:42;;;;;;;0.95;0.50;;;16.50;58.00;;;;;;4855957;29;20171;-84
2024/01/13 03:01:08;;;;;;;1.42;0.52;;;16.40;58.00;;;;;;4868190;29;20160;-84
2024/01/13 03:03:36;;;;;;;0.63;0.50;;;16.40;58.00;;;;;;4864016;24;20728;-84
2024/01/13 03:06:04;;;;;;;1.40;0.52;;;16.40;57.90;;;;;;4844128;29;20184;-84
2024/01/13 03:08:31;;;;;;;2.25;0.50;;;16.40;58.20;;;;;;4849718;29;20191;-84
2024/01/13 03:10:57;;;;;;;1.30;0.68;;;16.40;58.20;;;;;;4835498;29;20226;-84
2024/01/13 03:13:23;;;;;;;1.65;0.60;;;16.40;58.00;;;;;;4834944;29;20180;-84
2024/01/13 03:21:03;;;;;;;1.73;0.60;;;16.40;58.40;;;;;;4983923;23;20341;-85
2024/01/13 03:23:29;;;;;;;1.10;0.38;;;16.40;58.20;;;;;;4835514;29;20196;-84
2024/01/13 03:25:55;;;;;;;2.60;0.50;;;16.40;58.20;;;;;;4850577;29;20638;-84
2024/01/13 03:28:22;;;;;;;0.70;0.50;;;16.40;58.20;;;;;;4850469;29;20196;-84
2024/01/13 03:30:48;;;;;;;1.48;0.60;;;16.30;58.10;;;;;;4835882;29;20189;-85
2024/01/13 03:33:14;;;;;;;0.57;0.50;;;16.30;58.20;;;;;;4861702;29;20182;-84
2024/01/13 03:35:41;;;;;;;0.77;0.50;;;16.40;58.10;;;;;;4853895;29;20207;-84
2024/01/13 03:38:07;;;;;;;0.88;0.70;;;16.30;58.00;;;;;;4835147;29;20190;-84
2024/01/13 03:40:35;;;;;;;0.82;0.65;;;16.40;58.20;;;;;;4817260;29;20197;-84
2024/01/13 03:43:01;;;;;;;1.10;0.60;;;16.40;58.20;;;;;;4831894;29;20177;-84
2024/01/13 03:45:27;;;;;;;0.88;0.60;;;16.30;58.20;;;;;;4844980;29;20199;-84
2024/01/13 03:47:53;;;;;;;0.95;0.60;;;16.40;58.30;;;;;;4835252;29;20189;-84
2024/01/13 03:50:20;;;;;;;2.53;0.82;;;16.30;58.00;;;;;;4834987;29;20188;-84
2024/01/13 03:52:51;;;;;;;2.22;0.60;;;16.40;58.10;;;;;;4835470;29;20268;-84
2024/01/13 03:55:17;;;;;;;0.88;0.52;;;16.40;58.00;;;;;;4817677;29;20618;-85
2024/01/13 03:57:43;;;;;;;0.77;0.60;;;16.30;58.20;;;;;;4834990;29;20188;-85
2024/01/13 04:00:10;;;;;;;1.15;0.50;;;16.30;58.20;;;;;;4851606;29;20678;-85
2024/01/13 04:02:35;;;;;;;0.90;0.68;;;16.40;58.20;;;;;;4833545;29;20169;-84
2024/01/13 04:05:01;;;;;;;1.48;0.60;;;16.30;58.20;;;;;;4849267;29;20153;-84
2024/01/13 04:07:27;;;;;;;0.75;0.65;;;16.40;58.30;;;;;;4855779;29;20164;-84
2024/01/13 04:09:53;;;;;;;2.03;0.65;;;16.30;58.20;;;;;;4819909;29;20161;-84
2024/01/13 04:12:19;;;;;;;0.80;0.60;;;16.30;58.30;;;;;;4816844;29;20766;-84
2024/01/13 04:14:45;;;;;;;0.93;0.50;;;16.30;58.20;;;;;;4847605;29;20200;-84
2024/01/13 04:17:10;;;;;;;0.52;0.47;;;16.30;58.30;;;;;;4838641;29;20169;-84
2024/01/13 04:19:39;;;;;;;1.20;0.80;;;16.30;58.10;;;;;;4834704;29;20189;-84
2024/01/13 04:24:30;;;;;;;1.10;0.60;;;16.30;58.10;;;;;;4895370;23;20270;-84
2024/01/13 04:29:25;;;;;;;1.13;0.60;;;16.30;58.10;;;;;;4967983;23;20245;-85
2024/01/13 04:31:52;;;;;;;1.65;0.70;;;16.30;58.20;;;;;;4837826;29;20193;-84
2024/01/13 04:36:53;;;;;;;0.60;0.50;;;16.30;58.00;;;;;;4852055;23;20602;-84
2024/01/13 04:39:21;;;;;;;1.15;0.52;;;16.30;58.20;;;;;;4867116;29;20191;-84
2024/01/13 04:41:47;;;;;;;1.33;0.60;;;16.30;58.30;;;;;;4845272;29;20226;-84
2024/01/13 04:44:33;;;;;;;0.73;0.57;;;16.30;58.10;;;;;;4881972;29;20246;-84
2024/01/13 04:49:40;;;;;;;0.93;0.65;;;16.30;58.20;;;;;;4871675;29;20207;-84
2024/01/13 04:52:06;;;;;;;1.98;0.45;;;16.20;58.20;;;;;;4854339;29;20591;-84
2024/01/13 04:54:31;;;;;;;0.85;0.60;;;16.20;58.20;;;;;;4855081;29;20274;-84
2024/01/13 04:56:57;;;;;;;0.70;0.35;;;16.30;58.20;;;;;;4870202;29;20212;-84
2024/01/13 04:59:25;;;;;;;1.30;0.40;;;16.30;58.00;;;;;;4853897;29;20549;-84
2024/01/13 05:01:52;;;;;;;1.02;0.50;;;16.30;58.10;;;;;;4858698;29;20191;-84
2024/01/13 05:04:18;;;;;;;1.50;0.60;;;16.30;58.10;;;;;;4855209;29;20193;-84
2024/01/13 05:06:44;;;;;;;1.00;0.50;;;16.30;58.20;;;;;;4852337;29;20165;-84
2024/01/13 05:09:15;;;;;;;1.20;0.57;;;16.30;58.10;;;;;;4837102;29;20724;-84
2024/01/13 05:11:41;;;;;;;1.02;0.60;;;16.30;58.10;;;;;;4852865;29;20157;-84
2024/01/13 05:14:08;;;;;;;1.20;0.50;;;16.20;58.00;;;;;;4838113;29;20181;-84
2024/01/13 05:16:34;;;;;;;0.50;0.50;;;16.30;57.90;;;;;;4869933;29;20180;-84
2024/01/13 05:18:59;;;;;;;1.83;0.77;;;16.30;58.20;;;;;;4858849;29;20205;-84
2024/01/13 05:21:26;;;;;;;0.40;0.40;;;16.30;58.00;;;;;;4854380;29;20195;-84
2024/01/13 05:23:55;;;;;;;1.60;0.43;;;16.30;58.20;;;;;;4853716;29;20222;-84
2024/01/13 05:26:21;;;;;;;1.35;0.60;;;16.20;58.00;;;;;;4869519;29;20156;-84
2024/01/13 05:28:46;;;;;;;0.40;0.40;;;16.20;58.20;;;;;;4854162;29;20675;-84
2024/01/13 05:31:12;;;;;;;1.00;0.60;;;16.30;57.90;;;;;;4861325;24;20806;-84
2024/01/13 05:33:38;;;;;;;1.40;0.40;;;16.30;58.00;;;;;;4856764;29;20271;-84
2024/01/13 05:36:04;;;;;;;1.15;0.68;;;16.20;57.90;;;;;;4854602;29;20189;-84
2024/01/13 05:38:32;;;;;;;1.73;0.70;;;16.30;57.90;;;;;;4899764;24;20245;-85
2024/01/13 05:41:00;;;;;;;0.57;0.50;;;16.20;58.00;;;;;;4783670;30;20234;-84
2024/01/13 05:43:29;;;;;;;1.35;0.70;;;16.20;57.90;;;;;;4766186;30;20195;-85
2024/01/13 05:45:55;;;;;;;0.85;0.43;;;16.30;58.20;;;;;;4792377;29;20187;-84
2024/01/13 05:48:23;;;;;;;0.68;0.50;;;16.20;57.90;;;;;;4797954;29;20514;-84
2024/01/13 05:50:53;;;;;;;0.90;0.70;;;16.20;58.00;;;;;;4767866;30;20223;-84
2024/01/13 05:53:19;;;;;;;1.25;0.57;;;16.20;57.80;;;;;;4776561;30;20191;-84
2024/01/13 05:55:46;;;;;;;1.20;0.50;;;16.20;58.10;;;;;;4763343;30;20283;-84
2024/01/13 05:58:12;;;;;;;1.60;0.50;;;16.20;58.20;;;;;;4777304;30;20185;-84
2024/01/13 06:00:38;;;;;;;0.50;0.40;;;16.20;57.90;;;;;;4777222;30;20314;-84
2024/01/13 06:03:04;;;;;;;0.98;0.77;;;16.20;57.90;;;;;;4793142;30;20191;-84
2024/01/13 06:05:31;;;;;;;0.70;0.50;;;16.20;57.80;;;;;;4758785;30;20228;-83
2024/01/13 06:07:58;;;;;;;1.02;0.60;;;16.30;57.90;;;;;;4759872;30;20313;-85
2024/01/13 06:10:25;;;;;;;0.57;0.50;;;16.30;57.80;;;;;;4776245;30;20184;-85
2024/01/13 06:12:51;;;;;;;0.82;0.50;;;16.20;58.10;;;;;;4823308;29;20196;-84
2024/01/13 06:15:17;;;;;;;0.60;0.60;;;16.20;57.90;;;;;;4798214;29;20174;-84
2024/01/13 06:17:43;;;;;;;1.40;0.60;;;16.20;57.80;;;;;;4805427;29;20269;-84
2024/01/13 06:22:34;;;;;;;0.77;0.40;;;16.20;58.00;;;;;;4884513;23;20247;-84
2024/01/13 06:25:00;;;;;;;1.60;0.50;;;16.20;57.90;;;;;;4844530;29;20559;-84
2024/01/13 06:27:29;;;;;;;1.20;0.70;;;16.30;58.10;;;;;;4841013;29;20177;-84
2024/01/13 06:30:00;;;;;;;0.60;0.50;;;16.20;57.80;;;;;;4838187;29;20181;-86
2024/01/13 06:32:27;;;;;;;1.77;0.60;;;16.20;57.80;;;;;;4837775;29;20173;-84
2024/01/13 06:34:52;;;;;;;0.80;0.50;;;16.20;57.90;;;;;;4866088;24;20787;-84
2024/01/13 06:37:19;;;;;;;1.23;0.60;;;16.20;58.00;;;;;;4820654;29;20219;-85
2024/01/13 06:39:45;;;;;;;1.02;0.47;;;16.10;58.00;;;;;;4821891;29;20664;-84
2024/01/13 06:42:12;;;;;;;0.70;0.50;;;16.10;57.90;;;;;;4821148;29;20184;-84
2024/01/13 06:44:39;;;;;;;0.85;0.60;;;16.20;57.80;;;;;;4845899;29;20200;-84
2024/01/13 06:47:04;;;;;;;0.47;0.40;;;16.20;57.80;;;;;;4871804;29;20164;-84
2024/01/13 06:49:30;;;;;;;1.60;0.70;;;16.20;58.00;;;;;;4871599;29;20165;-84
2024/01/13 06:51:56;;;;;;;0.65;0.60;;;16.20;57.80;;;;;;4828561;29;20186;-84
2024/01/13 06:54:22;;;;;;;0.73;0.60;;;16.20;57.80;;;;;;4833471;29;20219;-84
2024/01/13 06:56:48;;;;;;;1.00;0.60;;;16.20;57.60;;;;;;4870474;29;20227;-84
2024/01/13 06:59:15;;;;;;;0.88;0.40;;;16.20;57.80;;;;;;4838278;29;20244;-83
2024/01/13 07:01:42;;;;;;;0.95;0.60;;;16.20;57.60;;;;;;4816004;29;20181;-84
2024/01/13 07:04:09;;;;;;;0.85;0.40;;;16.20;57.60;;;;;;4826198;29;20236;-84
2024/01/13 07:06:36;;;;;;;1.27;0.60;;;16.20;57.80;;;;;;4831013;29;20185;-84
2024/01/13 07:09:02;;;;;;;1.45;0.47;;;16.20;57.80;;;;;;4814956;29;20196;-84
2024/01/13 07:11:28;;;;;;;0.60;0.60;;;16.20;57.80;;;;;;4846033;29;20164;-84
2024/01/13 07:13:54;;;;;;;1.15;0.55;;;16.20;57.60;;;;;;4834603;29;20224;-84
2024/01/13 07:16:21;;;;;;;1.35;0.50;;;16.20;57.70;;;;;;4819636;29;20164;-84
2024/01/13 07:18:46;;;;;;;0.65;0.50;;;16.10;57.60;;;;;;4833452;29;20165;-84
2024/01/13 07:21:12;;;;;;;1.10;0.77;;;16.20;57.80;;;;;;4818910;29;20191;-84
2024/01/13 07:23:38;;;;;;;1.08;0.52;;;16.20;57.70;;;;;;4835851;29;20267;-84
2024/01/13 07:26:05;;;;;;;0.80;0.63;;;16.20;57.80;;;;;;4839002;29;20233;-83
2024/01/13 07:28:33;;;;;;;0.65;0.47;;;16.20;57.90;;;;;;4825224;29;20165;-83
2024/01/13 07:31:01;;;;;;;0.93;0.70;;;16.20;57.90;;;;;;4840184;29;20172;-83
2024/01/13 07:33:27;;;;;;;1.02;0.57;;;16.10;57.90;;;;;;4855770;29;20181;-83
2024/01/13 07:35:54;;;;;;;0.98;0.45;;;16.10;57.80;;;;;;4824967;29;20300;-83
2024/01/13 07:38:21;;;;;;;1.52;0.60;;;16.20;57.70;;;;;;4834630;29;20200;-84
2024/01/13 07:40:48;;;;;;;1.27;0.52;;;16.10;57.80;;;;;;4822356;29;20205;-83
2024/01/13 07:43:16;;;;;;;0.98;0.60;;;16.20;57.60;;;;;;4823287;29;20172;-84
2024/01/13 07:45:42;;;;;;;1.23;0.50;;;16.20;57.70;;;;;;4822026;29;20222;-84
2024/01/13 07:48:08;;;;;;;1.08;0.40;;;16.30;57.60;;;;;;4821407;29;20181;-84
2024/01/13 07:50:38;;;;;;;0.77;0.70;;;16.20;57.60;;;;;;4822647;29;20188;-82
2024/01/13 07:53:10;;;;;;;1.00;0.60;;;16.20;57.60;;;;;;4820254;29;20177;-85
2024/01/13 07:55:43;;;;;;;0.88;0.50;;;16.30;57.30;;;;;;4833116;29;20538;-83
2024/01/13 07:58:15;;;;;;;0.40;0.40;;;16.30;57.20;;;;;;4833914;29;20185;-83
2024/01/13 08:00:40;;;;;;;1.38;0.70;;;16.30;57.20;;;;;;4892619;24;20727;-82
2024/01/13 08:03:30;;;;;;;1.75;0.60;;;16.30;57.10;;;;;;4839292;29;20231;-83
2024/01/13 08:05:56;;;;;;;0.50;0.40;;;16.40;57.20;;;;;;4875156;29;20186;-82
2024/01/13 08:08:23;;;;;;;1.50;0.70;;;16.40;57.10;;;;;;4841482;29;20184;-83
2024/01/13 08:10:49;;;;;;;0.38;0.38;;;16.40;57.00;;;;;;4844275;29;20181;-83
2024/01/13 08:13:23;;;;;;;1.80;0.63;;;16.50;56.70;;;;;;4858895;29;20172;-83
2024/01/13 08:15:50;;;;;;;1.25;0.60;;;16.50;56.80;;;;;;4828468;29;20255;-83
2024/01/13 08:18:16;;;;;;;1.02;0.70;;;16.60;56.30;;;;;;4829068;29;20184;-84
2024/01/13 08:20:45;;;;;;;0.77;0.55;;;16.70;56.20;;;;;;4828462;29;20294;-83
2024/01/13 08:23:11;;;;;;;0.57;0.50;;;16.70;56.40;;;;;;4830330;29;20193;-83
2024/01/13 08:25:38;;;;;;;0.70;0.45;;;16.70;56.40;;;;;;4820424;29;20182;-83
2024/01/13 08:28:10;;;;;;;3.63;0.70;;;16.80;56.20;;;;;;4790372;29;20190;-83
2024/01/13 08:30:39;;;;;;;0.80;0.60;;;16.80;56.10;;;;;;4805487;29;20221;-83
2024/01/13 08:33:04;;;;;;;0.82;0.60;;;16.80;56.10;;;;;;4821513;29;20170;-84
2024/01/13 08:35:31;;;;;;;1.98;0.40;;;16.80;56.10;;;;;;4819164;29;20194;-84
2024/01/13 08:38:01;;;;;;;1.15;0.52;;;16.80;55.90;;;;;;4805530;29;20226;-84
2024/01/13 08:40:34;;;;;;;0.43;0.43;;;16.80;55.90;;;;;;4819789;29;20226;-83
2024/01/13 08:43:04;;;;;;;1.98;0.63;;;16.80;56.00;;;;;;4789305;29;20194;-84
2024/01/13 08:45:33;;;;;;;4.45;0.88;;;16.80;56.10;;;;;;4800762;29;20190;-82
2024/01/13 08:48:04;;;;;;;0.75;0.40;;;16.80;56.20;;;;;;4785002;29;20201;-85
2024/01/13 08:50:32;;;;;;;1.45;0.50;;;16.80;56.00;;;;;;4798981;29;20208;-83
2024/01/13 08:53:01;;;;;;;1.45;0.60;;;16.80;56.20;;;;;;4783524;29;20197;-83
2024/01/13 08:55:30;;;;;;;1.13;0.60;;;16.80;56.20;;;;;;4784915;29;20225;-84
2024/01/13 08:57:59;;;;;;;3.33;0.80;;;16.80;55.90;;;;;;4815102;29;20243;-84
2024/01/13 09:00:36;;;;;;;;;;;;;;;;;;;;;
2024/01/13 09:03:06;;;;;;;1.90;0.73;;;16.90;56.00;;;;;;4802252;29;20293;-83
2024/01/13 09:05:48;;;;;;;6.35;0.70;;;16.90;56.80;;;;;;4789638;29;20190;-85
2024/01/13 09:08:14;;;;;;;10.88;1.25;;;17.00;56.20;;;;;;4801351;29;20302;-82
2024/01/13 09:10:58;;;;;;;2.55;0.70;;;17.00;56.70;;;;;;4810299;29;20217;-85
2024/01/13 09:13:26;;;;;;;2.47;0.70;;;17.00;56.30;;;;;;4760191;30;20390;-84
2024/01/13 09:15:59;;;;;;;5.60;0.70;;;16.90;56.20;;;;;;4711771;30;20221;-84
2024/01/13 09:18:28;;;;;;;4.63;0.80;;;17.00;56.20;;;;;;4692828;30;20195;-84
2024/01/13 09:20:59;;;;;;;1.33;0.68;;;17.00;56.10;;;;;;4688356;30;20319;-84
2024/01/13 09:23:28;;;;;;;7.00;0.77;;;17.00;56.10;;;;;;4674003;30;20648;-83
2024/01/13 09:25:54;;;;;;;5.30;0.98;;;16.90;56.10;;;;;;4699634;30;20190;-84
2024/01/13 09:28:26;;;;;;;6.57;0.60;;;17.00;55.90;;;;;;4695114;30;20238;-84
2024/01/13 09:31:06;;;;;;;4.40;0.70;;;17.00;56.20;;;;;;4718082;30;20641;-84
2024/01/13 09:33:34;;;;;;;8.63;0.70;;;17.10;55.90;;;;;;4724424;30;20197;-84
2024/01/13 09:36:05;;;;;;;2.60;0.80;;;17.20;55.70;;;;;;4718689;30;20217;-83
2024/01/13 09:38:36;;;;;;;6.75;0.77;;;17.10;55.70;;;;;;4749884;30;20245;-84
2024/01/13 09:41:02;;;;;;;9.25;0.85;;;17.10;55.80;;;;;;4742973;30;20224;-84
2024/01/13 09:43:48;;;;;;;3.17;0.80;;;17.10;56.00;;;;;;4757784;30;20207;-82
2024/01/13 09:46:20;;;;;;;4.60;0.80;;;17.20;56.20;;;;;;4767219;30;20204;-84
2024/01/13 09:48:51;;;;;;;4.57;0.73;;;17.00;56.20;;;;;;4756356;29;20182;-82
2024/01/13 09:51:23;;;;;;;1.50;0.52;;;17.10;56.30;;;;;;4797789;29;20318;-82
2024/01/13 09:53:59;;;;;;;6.45;0.88;;;17.00;56.40;;;;;;4828521;29;20605;-82
2024/01/13 09:56:36;;;;;;;4.45;1.00;;;17.00;56.70;;;;;;4815969;29;20564;-83
2024/01/13 09:59:02;;;;;;;6.28;0.93;;;17.00;57.40;;;;;;4798655;29;20229;-82
2024/01/13 10:01:29;;;;;;;10.18;1.00;;;17.00;57.50;;;;;;4812549;29;20269;-82
2024/01/13 10:03:54;;;;;;;12.80;1.45;;;17.10;57.20;;;;;;4823299;29;20269;-83
2024/01/13 10:06:24;;;;;;;19.15;1.90;;;17.20;57.40;;;;;;4833947;29;20205;-84
2024/01/13 10:08:55;;;;;;;20.15;1.73;;;17.30;57.50;;;;;;4850715;29;20218;-82
2024/01/13 10:11:23;;;;;;;18.30;2.08;;;17.40;57.30;;;;;;4876994;29;20208;-84
2024/01/13 10:14:01;;;;;;;15.90;1.33;;;17.40;57.20;;;;;;4874477;29;20252;-84
2024/01/13 10:16:31;;;;;;;18.48;1.40;;;17.30;56.90;;;;;;4889001;29;20227;-83
2024/01/13 10:19:01;;;;;;;9.57;1.33;;;17.40;57.00;;;;;;4846694;29;20200;-83
2024/01/13 10:21:29;;;;;;;12.60;1.60;;;17.30;57.10;;;;;;4853862;29;20172;-83
2024/01/13 10:24:00;;;;;;;21.05;1.40;;;17.30;57.20;;;;;;4875185;29;20175;-82
2024/01/13 10:26:29;;;;;;;11.65;1.20;;;17.30;57.70;;;;;;4832228;29;20213;-82
2024/01/13 10:28:56;;;;;;;12.07;1.38;;;17.30;58.00;;;;;;4829892;29;20726;-82
2024/01/13 10:31:26;;;;;;;12.90;1.50;;;17.40;58.10;;;;;;4814103;29;20202;-81
2024/01/13 10:33:55;;;;;;;10.32;1.45;;;17.40;58.20;;;;;;4814915;29;20197;-82
2024/01/13 10:36:28;;;;;;;13.88;1.63;;;17.50;58.40;;;;;;4777639;29;20301;-81
2024/01/13 10:38:58;;;;;;;13.30;1.48;;;17.50;58.80;;;;;;4808667;29;20190;-82
2024/01/13 10:41:27;;;;;;;8.57;1.30;;;17.50;59.00;;;;;;4793488;29;20202;-81
2024/01/13 10:43:55;;;;;;;12.30;1.65;;;17.60;59.10;;;;;;4780364;29;20186;-83
2024/01/13 10:46:23;;;;;;;12.65;1.58;;;17.50;58.90;;;;;;4794588;29;20267;-82
2024/01/13 10:49:04;;;;;;;8.40;1.27;;;17.50;58.90;;;;;;4807633;29;20163;-81
2024/01/13 10:51:42;;;;;;;25.27;2.08;;;17.50;58.70;;;;;;4806690;29;20182;-80
2024/01/13 10:54:08;;;;;;;15.57;1.60;;;17.40;58.80;;;;;;4795680;29;20182;-81
2024/01/13 10:56:36;;;;;;;12.10;1.48;;;17.50;59.30;;;;;;4817184;29;20696;-82
2024/01/13 10:59:02;;;;;;;15.02;1.20;;;17.40;60.10;;;;;;4818606;29;20224;-82
2024/01/13 11:01:30;;;;;;;16.17;1.63;;;17.50;60.00;;;;;;4812742;29;20206;-81
2024/01/13 11:03:56;;;;;;;12.52;1.73;;;17.50;60.10;;;;;;4817370;29;20256;-83
2024/01/13 11:06:22;;;;;;;12.80;1.70;;;17.50;59.80;;;;;;4825274;29;20180;-81
2024/01/13 11:08:50;;;;;;;12.25;1.33;;;17.50;59.90;;;;;;4886841;29;20497;-82
2024/01/13 11:11:19;;;;;;;15.25;1.40;;;17.50;60.30;;;;;;4871895;29;20172;-83
2024/01/13 11:13:49;;;;;;;15.68;1.65;;;17.50;59.50;;;;;;4887904;29;20242;-83
2024/01/13 11:16:20;;;;;;;13.23;1.65;;;17.60;60.00;;;;;;4860184;29;20180;-83
2024/01/13 11:18:50;;;;;;;13.27;1.40;;;17.50;59.40;;;;;;4861435;29;20182;-83
2024/01/13 11:21:18;;;;;;;13.95;1.40;;;17.50;59.90;;;;;;4880226;29;20208;-82
2024/01/13 11:24:01;;;;;;;18.65;1.60;;;17.50;59.00;;;;;;4863775;29;20160;-81
2024/01/13 11:26:36;;;;;;;12.00;2.03;;;17.50;59.50;;;;;;4853285;29;20540;-82
2024/01/13 11:29:14;;;;;;;15.43;1.92;;;17.50;58.80;;;;;;4835744;29;20180;-81
2024/01/13 11:31:41;;;;;;;15.02;2.00;;;17.50;59.00;;;;;;4867447;29;20228;-83
2024/01/13 11:34:10;;;;;;;20.38;1.63;;;17.40;59.20;;;;;;4836791;29;20169;-82
2024/01/13 11:36:39;;;;;;;28.73;2.45;;;17.40;59.40;;;;;;4858699;29;20612;-82
2024/01/13 11:39:08;;;;;;;23.52;2.28;;;17.40;59.60;;;;;;4824672;29;20212;-82
2024/01/13 11:41:48;;;;;;;21.15;1.67;;;17.40;59.60;;;;;;4856279;29;20247;-81
2024/01/13 11:44:35;;;;;;;16.80;2.08;;;17.40;58.60;;;;;;4824749;29;20196;-82
2024/01/13 11:47:05;;;;;;;17.02;1.95;;;17.40;59.10;;;;;;4859579;29;20243;-83
2024/01/13 11:49:36;;;;;;;20.25;1.95;;;17.50;59.10;;;;;;4855733;29;20925;-83
2024/01/13 11:52:08;;;;;;;21.48;2.08;;;17.50;59.90;;;;;;4848453;29;20707;-82
2024/01/13 11:54:35;;;;;;;17.67;1.75;;;17.50;59.10;;;;;;4874850;29;20288;-83
2024/01/13 11:57:23;;;;;;;14.45;1.73;;;17.50;59.40;;;;;;4847879;29;20204;-81
2024/01/13 11:59:49;;;;;;;15.10;1.60;;;17.40;59.10;;;;;;4833545;29;20240;-81
2024/01/13 12:02:15;;;;;;;19.13;1.75;;;17.60;59.20;;;;;;4829319;29;20204;-80
2024/01/13 12:04:42;;;;;;;14.95;1.90;;;17.60;59.50;;;;;;4795832;29;20232;-82
2024/01/13 12:07:10;;;;;;;14.68;1.83;;;17.50;59.40;;;;;;4785872;29;20195;-81
2024/01/13 12:09:41;;;;;;;22.08;2.40;;;17.50;59.50;;;;;;4809819;29;20266;-81
2024/01/13 12:12:17;;;;;;;11.48;1.73;;;17.50;59.40;;;;;;4815386;29;20201;-82
2024/01/13 12:14:44;;;;;;;18.38;1.63;;;17.60;60.20;;;;;;4772952;29;20592;-80
2024/01/13 12:17:12;;;;;;;14.93;1.60;;;17.60;59.60;;;;;;4791048;29;20277;-82
2024/01/13 12:19:40;;;;;;;19.85;1.63;;;17.50;59.50;;;;;;4798943;29;20336;-81
2024/01/13 12:22:07;;;;;;;20.92;1.60;;;17.50;59.30;;;;;;4792577;29;20190;-82
2024/01/13 12:24:34;;;;;;;11.68;1.75;;;17.50;59.60;;;;;;4800491;29;20195;-82
2024/01/13 12:27:01;;;;;;;10.77;1.50;;;17.50;59.10;;;;;;4804196;29;20193;-83
2024/01/13 12:29:33;;;;;;;14.77;1.52;;;17.40;58.90;;;;;;4796132;29;20190;-82
2024/01/13 12:32:00;;;;;;;16.27;1.88;;;17.50;58.70;;;;;;4830792;29;20266;-82
2024/01/13 12:34:31;;;;;;;11.35;1.40;;;17.50;59.00;;;;;;4787789;29;20209;-82
2024/01/13 12:36:57;;;;;;;11.85;1.50;;;17.50;58.90;;;;;;4784879;29;20199;-82
2024/01/13 12:39:24;;;;;;;8.45;1.33;;;17.60;59.10;;;;;;4835771;29;20345;-82
2024/01/13 12:41:52;;;;;;;13.05;1.52;;;17.50;59.10;;;;;;4824307;29;20179;-81
2024/01/13 12:44:22;;;;;;;13.02;1.40;;;17.60;59.70;;;;;;4804804;29;20196;-81
2024/01/13 12:46:50;;;;;;;9.32;1.50;;;17.50;59.00;;;;;;4787036;29;20230;-82
2024/01/13 12:49:17;;;;;;;11.90;1.65;;;17.50;58.90;;;;;;4821990;29;20169;-83
2024/01/13 12:51:45;;;;;;;13.27;1.50;;;17.60;58.70;;;;;;4804349;29;20223;-82
2024/01/13 12:54:16;;;;;;;16.83;1.60;;;17.60;58.80;;;;;;4835302;29;20196;-82
2024/01/13 12:56:43;;;;;;;16.73;1.60;;;17.60;58.90;;;;;;4819498;29;20229;-81
2024/01/13 12:59:09;;;;;;;6.40;1.10;;;17.50;58.90;;;;;;4819037;29;20216;-81
2024/01/13 13:01:35;;;;;;;11.32;1.90;;;17.50;58.90;;;;;;4817759;29;20713;-81
2024/01/13 13:04:01;;;;;;;7.75;1.30;;;17.50;59.10;;;;;;4819910;29;20233;-82
2024/01/13 13:06:28;;;;;;;5.97;1.10;;;17.60;59.70;;;;;;4856429;29;20188;-82
2024/01/13 13:08:59;;;;;;;9.38;1.60;;;17.60;59.40;;;;;;4857931;29;20176;-82
2024/01/13 13:11:53;;;;;;;9.68;1.50;;;17.60;59.10;;;;;;4875092;29;20180;-82